Time;durP1;ratioP1;P1;durP2;ratioP2;P2;SDS_P1;SDS_P2;PMS_P1;PMS_P2;Temp;Humidity;BMP_temperature;BMP_pressure;BME280_temperature;BME280_humidity;BME280_pressure;Samples;Min_cycle;Max_cycle;Signal;HPM_P1;HPM_P2
2022/11/27 00:01:13;;;;;;;16.20;6.85;;;6.20;99.90;;;;;;4990939;28;20046;-81
2022/11/27 00:03:40;;;;;;;14.85;6.63;;;6.10;99.90;;;;;;4990249;28;20050;-82
2022/11/27 00:06:11;;;;;;;19.33;6.63;;;6.10;99.90;;;;;;4973915;28;20078;-82
2022/11/27 00:08:38;;;;;;;17.38;6.82;;;6.20;99.90;;;;;;4979979;28;20078;-81
2022/11/27 00:11:10;;;;;;;21.08;7.72;;;6.20;99.90;;;;;;4991184;28;20053;-80
2022/11/27 00:13:37;;;;;;;17.17;7.07;;;6.10;99.90;;;;;;4981514;28;20057;-81
2022/11/27 00:16:05;;;;;;;16.75;7.53;;;6.20;99.90;;;;;;4980857;28;20416;-82
2022/11/27 00:18:32;;;;;;;18.45;7.65;;;6.20;99.90;;;;;;4979642;28;20054;-81
2022/11/27 00:21:04;;;;;;;16.25;7.35;;;6.20;99.90;;;;;;4992918;28;20046;-81
2022/11/27 00:23:32;;;;;;;18.77;7.35;;;6.20;99.90;;;;;;4993359;28;20059;-82
2022/11/27 00:25:59;;;;;;;14.05;7.10;;;6.20;99.90;;;;;;4971806;28;20050;-81
2022/11/27 00:28:26;;;;;;;19.00;7.75;;;6.30;99.90;;;;;;4972433;28;20066;-80
2022/11/27 00:31:01;;;;;;;19.95;7.25;;;6.20;99.90;;;;;;4991815;28;20076;-81
2022/11/27 00:33:27;;;;;;;24.98;8.02;;;6.20;99.90;;;;;;4990823;28;20126;-82
2022/11/27 00:35:54;;;;;;;19.98;8.63;;;6.20;99.90;;;;;;4991306;28;20052;-81
2022/11/27 00:38:21;;;;;;;19.35;8.93;;;6.20;99.90;;;;;;4989943;28;20054;-81
2022/11/27 00:40:48;;;;;;;22.60;7.75;;;6.10;99.90;;;;;;4990859;28;20049;-82
2022/11/27 00:43:14;;;;;;;14.55;7.57;;;6.10;99.90;;;;;;4990768;28;20070;-82
2022/11/27 00:45:41;;;;;;;22.15;8.15;;;6.10;99.90;;;;;;4991067;28;20054;-81
2022/11/27 00:48:08;;;;;;;16.70;8.30;;;6.00;99.90;;;;;;4991148;28;20500;-82
2022/11/27 00:50:34;;;;;;;19.27;7.10;;;6.00;99.90;;;;;;4990773;28;20057;-82
2022/11/27 00:53:01;;;;;;;17.23;6.93;;;6.00;99.90;;;;;;4990772;28;20055;-82
2022/11/27 00:55:28;;;;;;;18.42;7.63;;;6.00;99.90;;;;;;4981120;28;20474;-81
2022/11/27 00:57:54;;;;;;;16.67;7.90;;;6.00;99.90;;;;;;4969742;28;20069;-82
2022/11/27 01:00:22;;;;;;;15.10;7.22;;;6.00;99.90;;;;;;4989621;28;20078;-82
2022/11/27 01:02:48;;;;;;;16.42;7.68;;;5.90;99.90;;;;;;4973866;28;20070;-82
2022/11/27 01:05:15;;;;;;;16.15;7.30;;;5.90;99.90;;;;;;4982670;28;20046;-83
2022/11/27 01:07:42;;;;;;;19.10;7.53;;;6.00;99.90;;;;;;4994803;28;20054;-83
2022/11/27 01:10:09;;;;;;;13.80;6.60;;;5.80;99.90;;;;;;4997889;28;20095;-82
2022/11/27 01:12:36;;;;;;;14.23;6.43;;;5.80;99.90;;;;;;4988903;28;20057;-82
2022/11/27 01:15:03;;;;;;;17.50;6.78;;;5.70;99.90;;;;;;4991901;28;20401;-82
2022/11/27 01:17:30;;;;;;;19.33;7.00;;;5.60;99.90;;;;;;4993453;28;20057;-83
2022/11/27 01:19:56;;;;;;;16.52;6.75;;;5.60;99.90;;;;;;4989903;28;20054;-82
2022/11/27 01:22:23;;;;;;;19.00;7.07;;;5.60;99.90;;;;;;4985063;28;20416;-83
2022/11/27 01:24:50;;;;;;;15.35;6.50;;;5.50;99.90;;;;;;4993438;28;20464;-82
2022/11/27 01:27:16;;;;;;;14.98;7.03;;;5.50;99.90;;;;;;4989508;28;20077;-83
2022/11/27 01:29:44;;;;;;;16.20;7.25;;;5.60;99.90;;;;;;4990201;28;20508;-81
2022/11/27 01:32:10;;;;;;;20.48;7.72;;;5.60;99.90;;;;;;4981622;28;20050;-82
2022/11/27 01:34:37;;;;;;;16.02;7.63;;;5.70;99.90;;;;;;4990936;28;20061;-80
2022/11/27 01:37:04;;;;;;;18.55;8.30;;;5.70;99.90;;;;;;4990900;28;20047;-82
2022/11/27 01:39:31;;;;;;;17.63;7.68;;;5.80;99.90;;;;;;4992250;28;20054;-83
2022/11/27 01:41:58;;;;;;;16.80;7.47;;;5.80;99.90;;;;;;4981077;28;20476;-82
2022/11/27 01:44:24;;;;;;;15.57;7.30;;;5.80;99.90;;;;;;4981437;28;20488;-81
2022/11/27 01:47:00;;;;;;;15.63;7.18;;;5.80;99.90;;;;;;4981769;28;20105;-81
2022/11/27 01:49:33;;;;;;;17.90;7.93;;;5.80;99.90;;;;;;4989368;28;20055;-82
2022/11/27 01:52:14;;;;;;;21.88;8.95;;;5.90;99.90;;;;;;4993606;28;20046;-83
2022/11/27 01:55:04;;;;;;;18.52;7.53;;;5.90;99.90;;;;;;4990647;28;20053;-83
2022/11/27 02:00:12;;;;;;;21.77;8.52;;;5.90;99.90;;;;;;4991075;23;20051;-77
2022/11/27 02:02:40;;;;;;;17.13;7.85;;;5.90;99.90;;;;;;4974185;28;20076;-77
2022/11/27 02:05:09;;;;;;;19.77;7.28;;;5.90;99.90;;;;;;4973957;28;20086;-77
2022/11/27 02:07:35;;;;;;;18.08;7.97;;;5.90;99.90;;;;;;4956763;28;20046;-77
2022/11/27 02:10:04;;;;;;;20.58;8.07;;;5.90;99.90;;;;;;4959729;28;20058;-77
2022/11/27 02:12:46;;;;;;;20.00;8.18;;;5.70;99.90;;;;;;4993048;28;20054;-76
2022/11/27 02:15:22;;;;;;;22.58;8.88;;;5.70;99.90;;;;;;4976417;28;20132;-78
2022/11/27 02:18:30;;;;;;;23.98;8.40;;;5.70;99.90;;;;;;4993206;28;20042;-77
2022/11/27 02:21:23;;;;;;;16.52;8.55;;;5.70;99.90;;;;;;4879341;29;20052;-78
2022/11/27 02:24:30;;;;;;;22.45;8.13;;;5.70;99.90;;;;;;4990847;28;20057;-77
2022/11/27 02:27:06;;;;;;;18.98;7.93;;;5.70;99.90;;;;;;4992991;28;20050;-77
2022/11/27 02:29:34;;;;;;;22.67;7.28;;;5.80;99.90;;;;;;4993204;28;20097;-78
2022/11/27 02:32:14;;;;;;;17.92;7.43;;;5.90;99.90;;;;;;4993070;28;20475;-78
2022/11/27 02:34:58;;;;;;;14.60;6.13;;;5.80;99.90;;;;;;4993079;28;20096;-76
2022/11/27 02:37:39;;;;;;;15.73;7.72;;;5.90;99.90;;;;;;4992775;28;20050;-77
2022/11/27 02:40:12;;;;;;;15.32;6.45;;;5.80;99.90;;;;;;4975453;28;20050;-76
2022/11/27 02:42:52;;;;;;;15.30;7.13;;;5.80;99.90;;;;;;4975563;28;20050;-78
2022/11/27 02:45:29;;;;;;;18.55;7.55;;;5.70;99.90;;;;;;4975569;28;20042;-77
2022/11/27 02:47:56;;;;;;;14.90;7.00;;;5.60;99.90;;;;;;4992580;28;20511;-78
2022/11/27 02:50:25;;;;;;;16.67;6.57;;;5.60;99.90;;;;;;4975252;28;20060;-77
2022/11/27 02:52:56;;;;;;;21.45;8.68;;;5.60;99.90;;;;;;4992837;28;20400;-78
2022/11/27 02:55:26;;;;;;;21.17;8.60;;;5.60;99.90;;;;;;4992763;28;20050;-77
2022/11/27 02:57:56;;;;;;;18.23;8.48;;;5.60;99.90;;;;;;4992321;28;20050;-77
2022/11/27 03:00:23;;;;;;;17.90;8.32;;;5.70;99.90;;;;;;4992225;28;20046;-77
2022/11/27 03:02:59;;;;;;;18.38;8.43;;;5.70;99.90;;;;;;4991842;28;20172;-77
2022/11/27 03:05:31;;;;;;;19.70;7.97;;;5.60;99.90;;;;;;4992647;28;20069;-77
2022/11/27 03:08:05;;;;;;;18.00;7.22;;;5.50;99.90;;;;;;4992443;28;20420;-77
2022/11/27 03:10:53;;;;;;;16.98;6.88;;;5.50;99.90;;;;;;4991816;28;20057;-77
2022/11/27 03:13:20;;;;;;;17.73;7.35;;;5.40;99.90;;;;;;4975262;28;20046;-78
2022/11/27 03:16:05;;;;;;;14.57;6.43;;;5.40;99.90;;;;;;4992434;28;20050;-78
2022/11/27 03:18:44;;;;;;;17.02;6.85;;;5.50;99.90;;;;;;4992103;28;20437;-77
2022/11/27 03:21:55;;;;;;;16.02;7.15;;;5.50;99.90;;;;;;4975020;28;20050;-77
2022/11/27 03:24:22;;;;;;;15.82;6.80;;;5.50;99.90;;;;;;4894377;29;20052;-76
2022/11/27 03:26:51;;;;;;;14.45;6.57;;;5.50;99.90;;;;;;4955822;28;20050;-77
2022/11/27 03:29:26;;;;;;;19.02;7.20;;;5.50;99.90;;;;;;4975103;28;20057;-77
2022/11/27 03:31:55;;;;;;;20.85;7.10;;;5.50;99.90;;;;;;4974901;28;20048;-78
2022/11/27 03:34:22;;;;;;;16.48;6.70;;;5.50;99.90;;;;;;4974903;28;20495;-77
2022/11/27 03:36:48;;;;;;;17.33;6.32;;;5.60;99.90;;;;;;4992334;28;20046;-77
2022/11/27 03:39:15;;;;;;;14.93;6.15;;;5.50;99.90;;;;;;4991955;28;20415;-77
2022/11/27 03:42:10;;;;;;;17.27;6.68;;;5.60;99.90;;;;;;4992144;28;20046;-77
2022/11/27 03:44:58;;;;;;;18.63;7.10;;;5.60;99.90;;;;;;4974971;28;20054;-76
2022/11/27 03:47:30;;;;;;;16.02;7.63;;;5.60;99.90;;;;;;4974739;28;20055;-77
2022/11/27 03:50:16;;;;;;;21.45;7.63;;;5.60;99.90;;;;;;4991687;28;20058;-78
2022/11/27 03:53:20;;;;;;;20.67;8.10;;;5.70;99.90;;;;;;4974999;28;20393;-77
2022/11/27 03:56:08;;;;;;;21.05;7.85;;;5.70;99.90;;;;;;4992026;28;20058;-78
2022/11/27 03:58:54;;;;;;;19.80;7.10;;;5.70;99.90;;;;;;4992027;28;20053;-76
2022/11/27 04:01:25;;;;;;;18.90;6.45;;;5.70;99.90;;;;;;4991656;28;20534;-77
2022/11/27 04:03:51;;;;;;;13.50;6.28;;;5.70;99.90;;;;;;4992065;28;20053;-78
2022/11/27 04:06:18;;;;;;;13.70;5.60;;;5.70;99.90;;;;;;4974675;28;20137;-76
2022/11/27 04:08:46;;;;;;;15.20;6.75;;;5.70;99.90;;;;;;4991719;28;20057;-77
2022/11/27 04:11:14;;;;;;;17.02;6.88;;;5.70;99.90;;;;;;4974047;28;20050;-78
2022/11/27 04:13:40;;;;;;;14.02;6.20;;;5.70;99.90;;;;;;4994207;28;20057;-76
2022/11/27 04:16:07;;;;;;;22.40;7.78;;;5.70;99.90;;;;;;4995920;28;20050;-77
2022/11/27 04:18:34;;;;;;;14.30;6.03;;;5.60;99.90;;;;;;4995236;28;20060;-77
2022/11/27 04:21:01;;;;;;;17.50;6.63;;;5.60;99.90;;;;;;4995476;28;20488;-76
2022/11/27 04:23:28;;;;;;;16.90;6.72;;;5.40;99.90;;;;;;4995526;28;20050;-77
2022/11/27 04:25:54;;;;;;;14.02;6.00;;;5.40;99.90;;;;;;4995369;28;20482;-77
2022/11/27 04:28:21;;;;;;;13.50;5.28;;;5.30;99.90;;;;;;4995167;28;20061;-76
2022/11/27 04:30:52;;;;;;;14.70;5.55;;;5.40;99.90;;;;;;4994938;28;20419;-78
2022/11/27 04:33:18;;;;;;;15.88;5.95;;;5.40;99.90;;;;;;4995120;28;20057;-77
2022/11/27 04:35:45;;;;;;;16.15;5.38;;;5.40;99.90;;;;;;4978053;28;20057;-76
2022/11/27 04:38:12;;;;;;;18.50;5.80;;;5.40;99.90;;;;;;4995144;28;20113;-76
2022/11/27 04:40:39;;;;;;;19.20;7.18;;;5.40;99.90;;;;;;4994867;28;20069;-78
2022/11/27 04:43:05;;;;;;;14.00;5.32;;;5.50;99.90;;;;;;4995216;28;20046;-77
2022/11/27 04:45:32;;;;;;;17.48;6.43;;;5.50;99.90;;;;;;4994975;28;20047;-76
2022/11/27 04:47:59;;;;;;;14.80;6.00;;;5.50;99.90;;;;;;4995237;28;20467;-78
2022/11/27 04:50:25;;;;;;;13.25;5.22;;;5.50;99.90;;;;;;4977549;28;20057;-77
2022/11/27 04:52:52;;;;;;;10.05;4.75;;;5.50;99.90;;;;;;4994776;28;20057;-76
2022/11/27 04:55:19;;;;;;;16.65;5.82;;;5.50;99.90;;;;;;4977641;28;20073;-75
2022/11/27 04:57:45;;;;;;;14.18;5.60;;;5.50;99.90;;;;;;4994742;28;20082;-76
2022/11/27 05:00:13;;;;;;;14.40;5.47;;;5.50;99.90;;;;;;4977251;28;20050;-77
2022/11/27 05:02:39;;;;;;;16.25;5.72;;;5.50;99.90;;;;;;4994891;28;20439;-77
2022/11/27 05:05:07;;;;;;;19.10;7.00;;;5.60;99.90;;;;;;4994923;28;20093;-77
2022/11/27 05:07:34;;;;;;;19.65;6.45;;;5.60;99.90;;;;;;4977314;28;20527;-77
2022/11/27 05:10:01;;;;;;;19.27;6.70;;;5.60;99.90;;;;;;4994275;28;20109;-76
2022/11/27 05:12:27;;;;;;;19.20;6.65;;;5.60;99.90;;;;;;4994076;28;20046;-77
2022/11/27 05:14:54;;;;;;;19.05;6.88;;;5.70;99.90;;;;;;4994680;28;20050;-77
2022/11/27 05:17:21;;;;;;;20.25;7.50;;;5.70;99.90;;;;;;4994730;28;20074;-77
2022/11/27 05:19:48;;;;;;;17.55;6.95;;;5.70;99.90;;;;;;4994047;28;20065;-77
2022/11/27 05:22:14;;;;;;;18.13;6.93;;;5.70;99.90;;;;;;4994361;28;20054;-77
2022/11/27 05:24:41;;;;;;;21.08;7.65;;;5.80;99.90;;;;;;4993549;28;20050;-77
2022/11/27 05:27:09;;;;;;;14.65;6.95;;;5.80;99.90;;;;;;4994190;28;20137;-77
2022/11/27 05:29:35;;;;;;;19.60;8.10;;;5.80;99.90;;;;;;4994053;28;20060;-76
2022/11/27 05:32:02;;;;;;;19.27;7.43;;;5.80;99.90;;;;;;4994297;28;20404;-77
2022/11/27 05:34:29;;;;;;;19.27;6.85;;;5.80;99.90;;;;;;4994326;28;20073;-77
2022/11/27 05:36:56;;;;;;;22.05;8.80;;;5.80;99.90;;;;;;4994231;28;20427;-77
2022/11/27 05:39:23;;;;;;;18.75;7.22;;;5.80;99.90;;;;;;4994032;28;20455;-77
2022/11/27 05:41:49;;;;;;;21.77;7.43;;;5.90;99.90;;;;;;4994056;28;20042;-77
2022/11/27 05:44:16;;;;;;;18.45;7.18;;;5.80;99.90;;;;;;4994124;28;20053;-78
2022/11/27 05:46:43;;;;;;;18.50;7.07;;;5.80;99.90;;;;;;4976776;28;20047;-77
2022/11/27 05:49:12;;;;;;;19.02;7.55;;;5.80;99.90;;;;;;4993828;28;20050;-77
2022/11/27 05:51:39;;;;;;;17.85;7.45;;;5.80;99.90;;;;;;4993636;28;20050;-77
2022/11/27 05:54:06;;;;;;;14.73;6.57;;;5.80;99.90;;;;;;4993719;28;20077;-77
2022/11/27 05:56:32;;;;;;;12.48;6.38;;;5.70;99.90;;;;;;4993801;28;20058;-77
2022/11/27 05:58:59;;;;;;;16.33;5.93;;;5.70;99.90;;;;;;4993563;28;20047;-77
2022/11/27 06:01:26;;;;;;;12.98;5.13;;;5.60;99.90;;;;;;4976244;28;20050;-76
2022/11/27 06:03:52;;;;;;;9.27;4.78;;;5.60;99.90;;;;;;4993995;28;20670;-77
2022/11/27 06:06:20;;;;;;;10.82;4.95;;;5.60;99.90;;;;;;4993566;28;20047;-77
2022/11/27 06:08:46;;;;;;;9.23;4.53;;;5.60;99.90;;;;;;4993610;28;20059;-76
2022/11/27 06:11:18;;;;;;;9.70;4.32;;;5.60;99.90;;;;;;4992829;28;20507;-78
2022/11/27 06:13:46;;;;;;;12.27;4.93;;;5.60;99.90;;;;;;4993453;28;20054;-77
2022/11/27 06:16:18;;;;;;;9.23;4.80;;;5.60;99.90;;;;;;4993340;28;20050;-77
2022/11/27 06:18:49;;;;;;;8.88;4.50;;;5.60;99.90;;;;;;4975883;28;20295;-77
2022/11/27 06:21:16;;;;;;;11.50;5.47;;;5.60;99.90;;;;;;4975645;28;20050;-75
2022/11/27 06:23:43;;;;;;;14.75;6.65;;;5.60;99.90;;;;;;4976073;28;20057;-77
2022/11/27 06:26:19;;;;;;;19.20;7.82;;;5.50;99.90;;;;;;4976021;28;20050;-77
2022/11/27 06:28:46;;;;;;;20.13;7.78;;;5.50;99.90;;;;;;4993110;28;20058;-76
2022/11/27 06:31:17;;;;;;;14.27;6.97;;;5.50;99.90;;;;;;4992829;28;20046;-77
2022/11/27 06:33:48;;;;;;;23.52;8.68;;;5.60;99.90;;;;;;4993354;28;20057;-75
2022/11/27 06:36:16;;;;;;;18.60;8.65;;;5.60;99.90;;;;;;4975782;28;20428;-77
2022/11/27 06:38:43;;;;;;;23.25;8.90;;;5.60;99.90;;;;;;4992852;28;20057;-76
2022/11/27 06:41:16;;;;;;;21.60;9.05;;;5.60;99.90;;;;;;4975487;28;20057;-77
2022/11/27 06:43:43;;;;;;;20.45;8.55;;;5.70;99.90;;;;;;4992809;28;20507;-76
2022/11/27 06:46:17;;;;;;;20.27;8.60;;;5.70;99.90;;;;;;4992865;28;20050;-76
2022/11/27 06:48:46;;;;;;;23.42;8.93;;;5.70;99.90;;;;;;4993015;28;20085;-76
2022/11/27 06:51:16;;;;;;;19.42;9.38;;;5.70;99.90;;;;;;4992650;28;20596;-77
2022/11/27 06:53:43;;;;;;;19.15;8.10;;;5.80;99.90;;;;;;4993005;28;20046;-77
2022/11/27 06:56:14;;;;;;;19.90;8.05;;;5.80;99.90;;;;;;4992830;28;20050;-77
2022/11/27 06:58:41;;;;;;;14.35;6.93;;;5.80;99.90;;;;;;4992644;28;20500;-76
2022/11/27 07:01:14;;;;;;;11.65;6.50;;;5.80;99.90;;;;;;4975578;28;20547;-76
2022/11/27 07:03:41;;;;;;;12.20;5.45;;;5.80;99.90;;;;;;4993154;28;20393;-77
2022/11/27 07:06:12;;;;;;;12.73;6.47;;;5.80;99.90;;;;;;4992993;28;20057;-77
2022/11/27 07:08:39;;;;;;;11.82;6.22;;;5.80;99.90;;;;;;4975436;28;20054;-77
2022/11/27 07:11:09;;;;;;;13.10;6.28;;;5.70;99.90;;;;;;4975347;28;20451;-77
2022/11/27 07:13:36;;;;;;;12.32;6.45;;;5.70;99.90;;;;;;4993961;28;20050;-78
2022/11/27 07:16:05;;;;;;;10.38;5.90;;;5.70;99.90;;;;;;4993142;28;20046;-77
2022/11/27 07:18:38;;;;;;;13.15;6.95;;;5.60;99.90;;;;;;4992669;28;20081;-76
2022/11/27 07:21:05;;;;;;;12.38;6.72;;;5.60;99.90;;;;;;4992605;28;20073;-77
2022/11/27 07:23:32;;;;;;;14.75;8.00;;;5.60;99.90;;;;;;4992729;28;20049;-77
2022/11/27 07:26:04;;;;;;;29.92;10.35;;;5.50;99.90;;;;;;4992473;28;20511;-76
2022/11/27 07:28:31;;;;;;;13.10;6.13;;;5.60;99.90;;;;;;4992504;28;20058;-76
2022/11/27 07:30:58;;;;;;;10.45;5.32;;;5.60;99.90;;;;;;4992255;28;20050;-77
2022/11/27 07:33:25;;;;;;;11.40;6.30;;;5.60;99.90;;;;;;4992643;28;20487;-77
2022/11/27 07:36:06;;;;;;;13.23;6.15;;;5.60;99.90;;;;;;4992454;28;20492;-77
2022/11/27 07:38:33;;;;;;;11.68;6.50;;;5.70;99.90;;;;;;4992696;28;20058;-77
2022/11/27 07:41:01;;;;;;;14.45;8.18;;;5.80;99.90;;;;;;4992247;28;20393;-77
2022/11/27 07:43:30;;;;;;;15.38;8.15;;;5.90;99.90;;;;;;4992552;28;20046;-77
2022/11/27 07:45:56;;;;;;;16.95;8.75;;;5.90;99.90;;;;;;4975401;28;20057;-77
2022/11/27 07:48:23;;;;;;;20.90;9.95;;;5.90;99.90;;;;;;4977006;28;20096;-76
2022/11/27 07:50:50;;;;;;;26.00;10.00;;;5.80;99.90;;;;;;4996041;28;20082;-77
2022/11/27 07:53:17;;;;;;;25.38;11.52;;;5.90;99.90;;;;;;4996321;28;20515;-77
2022/11/27 07:55:43;;;;;;;24.38;10.85;;;6.00;99.90;;;;;;4996094;28;20054;-77
2022/11/27 07:58:10;;;;;;;23.50;11.18;;;6.00;99.90;;;;;;4979491;28;20418;-71
2022/11/27 08:00:37;;;;;;;24.23;11.10;;;6.10;99.90;;;;;;4996131;28;20050;-77
2022/11/27 08:03:04;;;;;;;20.75;10.63;;;6.10;99.90;;;;;;4996360;28;20389;-77
2022/11/27 08:05:34;;;;;;;21.48;10.35;;;6.10;99.90;;;;;;4995987;28;20054;-77
2022/11/27 08:08:03;;;;;;;26.40;11.35;;;6.10;99.90;;;;;;4995886;28;20049;-77
2022/11/27 08:10:33;;;;;;;29.70;12.85;;;6.00;99.90;;;;;;4977859;28;20709;-77
2022/11/27 08:12:59;;;;;;;25.88;12.10;;;6.00;99.90;;;;;;4995767;28;20050;-78
2022/11/27 08:15:26;;;;;;;27.55;11.70;;;6.00;99.90;;;;;;4995810;28;20418;-77
2022/11/27 08:17:53;;;;;;;28.27;12.65;;;6.00;99.90;;;;;;4978398;28;20053;-78
2022/11/27 08:20:19;;;;;;;28.83;12.75;;;6.00;99.90;;;;;;4995409;28;20050;-77
2022/11/27 08:22:46;;;;;;;30.55;13.50;;;6.00;99.90;;;;;;4995626;28;20058;-77
2022/11/27 08:25:13;;;;;;;28.85;12.93;;;5.90;99.90;;;;;;4995476;28;20046;-77
2022/11/27 08:27:41;;;;;;;23.67;11.07;;;6.00;99.90;;;;;;4978503;28;20053;-76
2022/11/27 08:30:08;;;;;;;26.10;10.82;;;6.00;99.90;;;;;;4995146;28;20050;-77
2022/11/27 08:32:39;;;;;;;24.33;10.75;;;6.00;99.90;;;;;;4995516;28;20061;-77
2022/11/27 08:35:06;;;;;;;23.27;10.32;;;6.00;99.90;;;;;;4977949;28;20535;-77
2022/11/27 08:37:34;;;;;;;21.02;9.73;;;6.10;99.90;;;;;;4995405;28;20050;-77
2022/11/27 08:40:02;;;;;;;18.58;8.93;;;6.20;99.90;;;;;;4977729;28;20420;-76
2022/11/27 08:42:29;;;;;;;18.13;8.73;;;6.20;99.90;;;;;;4977877;28;20046;-77
2022/11/27 08:44:55;;;;;;;15.40;8.05;;;6.30;99.90;;;;;;4977716;28;20051;-77
2022/11/27 08:47:22;;;;;;;14.15;7.38;;;6.40;99.90;;;;;;4994926;28;20073;-77
2022/11/27 08:49:49;;;;;;;12.40;6.95;;;6.40;99.90;;;;;;4994808;28;20062;-77
2022/11/27 08:52:15;;;;;;;10.20;5.55;;;6.50;99.90;;;;;;4995110;28;20073;-76
2022/11/27 08:54:42;;;;;;;8.80;5.07;;;6.60;99.90;;;;;;4995158;28;20051;-78
2022/11/27 08:57:09;;;;;;;10.55;6.63;;;6.70;99.90;;;;;;4977644;28;20054;-77
2022/11/27 08:59:35;;;;;;;11.15;6.07;;;6.70;99.90;;;;;;4993252;28;20055;-76
2022/11/27 09:02:02;;;;;;;9.88;5.90;;;6.80;99.90;;;;;;4994814;28;20053;-78
2022/11/27 09:04:29;;;;;;;10.80;6.28;;;6.80;99.90;;;;;;4994692;28;20085;-78
2022/11/27 09:06:56;;;;;;;10.15;4.88;;;6.90;99.90;;;;;;4977560;28;20141;-78
2022/11/27 09:09:24;;;;;;;14.75;8.10;;;7.00;99.90;;;;;;4977693;28;20050;-77
2022/11/27 09:11:53;;;;;;;12.43;6.57;;;7.00;99.90;;;;;;4994323;28;20081;-78
2022/11/27 09:14:20;;;;;;;14.68;6.80;;;7.10;99.90;;;;;;4994568;28;20070;-76
2022/11/27 09:16:46;;;;;;;11.57;5.95;;;7.10;99.90;;;;;;4994538;28;20046;-78
2022/11/27 09:19:13;;;;;;;11.77;7.00;;;7.10;99.90;;;;;;4994318;28;20058;-78
2022/11/27 09:21:40;;;;;;;12.57;6.03;;;7.10;99.90;;;;;;4994321;28;20057;-77
2022/11/27 09:24:08;;;;;;;11.52;6.85;;;7.20;99.90;;;;;;4994517;28;20049;-78
2022/11/27 09:26:36;;;;;;;14.68;7.47;;;7.10;99.90;;;;;;4994637;28;20484;-77
2022/11/27 09:29:02;;;;;;;16.10;9.30;;;7.10;99.90;;;;;;4994245;28;20121;-77
2022/11/27 09:31:29;;;;;;;16.25;8.23;;;7.00;99.90;;;;;;4994122;28;20055;-77
2022/11/27 09:33:57;;;;;;;16.85;9.13;;;7.00;99.90;;;;;;4994692;28;20046;-78
2022/11/27 09:36:25;;;;;;;17.90;9.18;;;7.10;99.90;;;;;;4994363;28;20058;-75
2022/11/27 09:38:52;;;;;;;18.02;8.50;;;7.00;99.90;;;;;;4994092;28;20463;-77
2022/11/27 09:41:25;;;;;;;26.20;12.43;;;7.00;99.90;;;;;;4993878;28;20057;-78
2022/11/27 09:44:02;;;;;;;20.00;8.95;;;7.00;99.90;;;;;;4977037;28;20408;-76
2022/11/27 09:46:39;;;;;;;19.92;8.98;;;7.00;99.90;;;;;;4994491;28;20050;-78
2022/11/27 09:49:16;;;;;;;20.83;9.13;;;6.90;99.90;;;;;;4994520;28;20165;-78
2022/11/27 09:51:49;;;;;;;17.08;8.77;;;6.90;99.90;;;;;;4976464;28;20058;-79
2022/11/27 09:54:25;;;;;;;19.85;8.02;;;6.80;99.90;;;;;;4976841;28;20054;-78
2022/11/27 09:56:54;;;;;;;15.27;8.13;;;6.80;99.90;;;;;;4994212;28;20142;-77
2022/11/27 09:59:28;;;;;;;16.42;8.35;;;6.80;99.90;;;;;;4976510;28;20058;-77
2022/11/27 10:01:55;;;;;;;13.05;7.75;;;6.90;99.90;;;;;;4993495;28;20150;-77
2022/11/27 10:04:23;;;;;;;13.70;7.32;;;7.00;99.90;;;;;;4976323;28;20496;-78
2022/11/27 10:07:00;;;;;;;14.85;8.20;;;7.10;99.90;;;;;;4994836;28;20054;-78
2022/11/27 10:09:36;;;;;;;13.82;7.32;;;7.10;99.90;;;;;;4995868;28;20046;-78
2022/11/27 10:12:29;;;;;;;14.65;7.88;;;7.10;99.90;;;;;;4977764;28;20054;-78
2022/11/27 10:15:14;;;;;;;15.20;8.27;;;7.10;99.90;;;;;;4997012;28;20255;-78
2022/11/27 10:17:54;;;;;;;10.63;5.97;;;7.20;99.90;;;;;;4979313;28;20050;-78
2022/11/27 10:20:42;;;;;;;11.35;6.22;;;7.30;99.90;;;;;;4995787;28;20054;-77
2022/11/27 10:23:21;;;;;;;12.55;6.88;;;7.40;99.90;;;;;;4978670;28;20065;-78
2022/11/27 10:25:51;;;;;;;10.82;8.02;;;7.50;99.90;;;;;;4978985;28;20049;-78
2022/11/27 10:28:35;;;;;;;11.40;6.75;;;7.50;99.90;;;;;;4978931;28;20050;-78
2022/11/27 10:31:09;;;;;;;12.50;6.35;;;7.60;99.90;;;;;;4978327;28;20061;-78
2022/11/27 10:33:46;;;;;;;13.15;6.45;;;7.60;99.90;;;;;;4996201;28;20050;-79
2022/11/27 10:36:17;;;;;;;12.57;8.15;;;7.70;99.90;;;;;;4979552;28;20057;-79
2022/11/27 10:38:46;;;;;;;13.13;7.15;;;7.70;99.90;;;;;;4978720;28;20053;-79
2022/11/27 10:41:36;;;;;;;12.68;7.20;;;7.70;99.90;;;;;;4978728;28;20074;-78
2022/11/27 10:44:30;;;;;;;13.70;7.15;;;7.70;99.90;;;;;;4995922;28;20046;-79
2022/11/27 10:47:08;;;;;;;14.65;7.72;;;7.70;99.90;;;;;;4978457;28;20047;-78
2022/11/27 10:49:39;;;;;;;13.10;6.63;;;7.60;99.90;;;;;;4995458;28;20050;-77
2022/11/27 10:52:18;;;;;;;12.05;6.90;;;7.60;99.90;;;;;;4994798;28;20050;-76
2022/11/27 10:55:03;;;;;;;17.55;7.97;;;7.60;99.90;;;;;;4992675;28;20405;-76
2022/11/27 10:58:03;;;;;;;14.45;8.60;;;7.60;99.90;;;;;;4993466;28;20050;-79
2022/11/27 11:00:30;;;;;;;16.08;8.65;;;7.60;99.90;;;;;;4992591;28;20129;-77
2022/11/27 11:03:05;;;;;;;13.93;7.43;;;7.60;99.90;;;;;;4992359;28;20054;-76
2022/11/27 11:05:33;;;;;;;11.27;6.53;;;7.70;99.90;;;;;;4992586;28;20050;-76
2022/11/27 11:08:20;;;;;;;14.32;6.28;;;7.80;99.90;;;;;;4977927;28;20108;-77
2022/11/27 11:10:57;;;;;;;13.02;6.13;;;7.80;99.90;;;;;;4992065;28;20072;-79
2022/11/27 11:13:54;;;;;;;11.35;6.45;;;7.90;99.90;;;;;;4992930;28;20054;-79
2022/11/27 11:16:23;;;;;;;10.80;6.65;;;7.90;99.90;;;;;;4956791;28;20050;-78
2022/11/27 11:18:55;;;;;;;12.23;6.22;;;7.90;99.90;;;;;;4992709;28;20050;-77
2022/11/27 11:21:29;;;;;;;10.18;6.30;;;7.90;99.90;;;;;;4975479;28;20049;-78
2022/11/27 11:24:02;;;;;;;14.88;7.22;;;7.90;99.90;;;;;;4992677;28;20049;-78
2022/11/27 11:26:50;;;;;;;12.93;6.70;;;7.90;99.90;;;;;;4993029;28;20058;-76
2022/11/27 11:29:38;;;;;;;11.65;6.63;;;7.90;99.90;;;;;;4992418;28;20058;-77
2022/11/27 11:32:13;;;;;;;12.98;6.53;;;7.90;99.90;;;;;;4975868;28;20050;-79
2022/11/27 11:34:43;;;;;;;10.75;6.32;;;7.80;99.90;;;;;;4993296;28;20047;-78
2022/11/27 11:37:25;;;;;;;11.93;6.22;;;7.90;99.90;;;;;;4993203;28;20105;-79
2022/11/27 11:39:59;;;;;;;11.73;6.75;;;7.90;99.90;;;;;;4975286;28;20054;-79
2022/11/27 11:42:32;;;;;;;10.73;6.95;;;8.00;99.90;;;;;;4993085;28;20046;-78
2022/11/27 11:45:05;;;;;;;8.90;6.07;;;8.00;99.90;;;;;;4975268;28;20098;-75
2022/11/27 11:47:32;;;;;;;13.73;6.47;;;8.00;99.90;;;;;;4992012;28;20058;-78
2022/11/27 11:49:58;;;;;;;9.15;5.53;;;8.10;99.90;;;;;;4991709;28;20047;-78
2022/11/27 11:53:00;;;;;;;10.88;6.22;;;8.10;99.90;;;;;;4991932;28;20050;-77
2022/11/27 11:55:36;;;;;;;10.55;6.63;;;8.20;99.90;;;;;;4890834;28;20056;-77
2022/11/27 11:58:24;;;;;;;11.15;6.32;;;8.20;99.90;;;;;;4987515;28;20053;-77
2022/11/27 12:01:03;;;;;;;12.20;6.95;;;8.30;99.90;;;;;;4978249;28;20054;-77
2022/11/27 12:04:20;;;;;;;11.30;7.25;;;8.40;99.90;;;;;;4979429;28;20082;-77
2022/11/27 12:07:21;;;;;;;15.02;7.97;;;8.40;99.90;;;;;;4973187;28;20102;-75
2022/11/27 12:09:56;;;;;;;13.52;6.95;;;8.50;99.90;;;;;;4978060;28;20047;-76
2022/11/27 12:12:54;;;;;;;12.48;7.43;;;8.50;99.90;;;;;;4966490;28;20050;-78
2022/11/27 12:15:47;;;;;;;12.43;6.82;;;8.50;99.90;;;;;;4975510;28;20455;-78
2022/11/27 12:18:32;;;;;;;11.02;6.60;;;8.40;99.90;;;;;;4984138;28;20054;-77
2022/11/27 12:21:22;;;;;;;12.43;6.68;;;8.40;99.90;;;;;;4987633;28;20508;-79
2022/11/27 12:23:54;;;;;;;12.13;5.93;;;8.40;99.90;;;;;;4982348;28;20523;-78
2022/11/27 12:27:00;;;;;;;12.80;6.15;;;8.40;99.90;;;;;;4987270;28;20298;-79
2022/11/27 12:29:41;;;;;;;9.35;5.65;;;8.50;99.90;;;;;;4930267;29;20067;-76
2022/11/27 12:32:38;;;;;;;13.88;6.05;;;8.50;99.90;;;;;;4931347;29;20054;-77
2022/11/27 12:35:31;;;;;;;11.90;5.90;;;8.50;99.90;;;;;;4973511;28;20047;-76
2022/11/27 12:38:10;;;;;;;14.05;7.28;;;8.50;99.90;;;;;;4981813;28;20049;-77
2022/11/27 12:40:58;;;;;;;12.07;5.93;;;8.50;99.90;;;;;;4973750;28;20042;-77
2022/11/27 12:43:27;;;;;;;11.82;6.20;;;8.50;99.90;;;;;;4986614;28;20038;-78
2022/11/27 12:46:22;;;;;;;14.55;6.35;;;8.60;99.90;;;;;;4985877;28;20050;-76
2022/11/27 12:48:54;;;;;;;9.10;5.97;;;8.60;99.90;;;;;;4973073;28;20537;-76
2022/11/27 12:51:32;;;;;;;11.60;6.50;;;8.60;99.90;;;;;;4983245;28;20046;-78
2022/11/27 12:54:08;;;;;;;11.75;6.05;;;8.60;99.90;;;;;;4968936;28;20069;-77
2022/11/27 12:56:49;;;;;;;8.93;5.90;;;8.60;99.90;;;;;;4967703;28;20054;-77
2022/11/27 12:59:32;;;;;;;11.00;5.95;;;8.60;99.90;;;;;;4985493;28;20431;-77
2022/11/27 13:02:04;;;;;;;11.05;6.55;;;8.60;99.90;;;;;;4967222;28;20526;-78
2022/11/27 13:04:45;;;;;;;13.10;6.10;;;8.60;99.90;;;;;;4970583;28;20038;-78
2022/11/27 13:07:26;;;;;;;10.52;6.35;;;8.70;99.90;;;;;;4983715;28;20054;-78
2022/11/27 13:09:59;;;;;;;12.70;7.03;;;8.70;99.90;;;;;;4978884;28;20459;-77
2022/11/27 13:12:33;;;;;;;14.88;6.72;;;8.70;99.90;;;;;;4967048;28;20055;-78
2022/11/27 13:15:05;;;;;;;10.43;6.13;;;8.70;99.90;;;;;;4980000;28;20058;-77